createdAt,value
2019-05-18T00:01:42.569Z,8.53
2019-05-18T00:04:12.788Z,8.73
2019-05-18T00:06:42.956Z,8.87
2019-05-18T00:09:13.121Z,8.80
2019-05-18T00:11:43.164Z,9.07
2019-05-18T00:14:13.479Z,8.47
2019-05-18T00:16:43.708Z,9.30
2019-05-18T00:19:13.885Z,8.70
2019-05-18T00:21:43.988Z,9.00
2019-05-18T00:24:14.095Z,9.33
2019-05-18T00:26:44.293Z,9.00
2019-05-18T00:29:14.394Z,9.37
2019-05-18T00:31:44.617Z,9.33
2019-05-18T00:34:14.814Z,8.83
2019-05-18T00:36:44.925Z,9.13
2019-05-18T00:39:15.039Z,10.07
2019-05-18T00:41:45.630Z,9.00
2019-05-18T00:44:15.910Z,9.10
2019-05-18T00:46:46.160Z,9.50
2019-05-18T00:49:16.360Z,9.33
2019-05-18T00:51:46.514Z,9.23
2019-05-18T00:54:16.758Z,9.90
2019-05-18T00:56:46.778Z,8.73
2019-05-18T00:59:17.047Z,9.50
2019-05-18T01:01:47.048Z,9.97
2019-05-18T01:04:17.181Z,9.20
2019-05-18T01:06:47.254Z,10.07
2019-05-18T01:09:17.376Z,9.40
2019-05-18T01:11:47.565Z,9.53
2019-05-18T01:14:17.844Z,9.53
2019-05-18T01:16:48.876Z,9.63
2019-05-18T01:19:19.036Z,9.30
2019-05-18T01:21:49.106Z,10.10
2019-05-18T01:24:19.220Z,10.03
2019-05-18T01:26:49.478Z,10.00
2019-05-18T01:29:19.642Z,9.70
2019-05-18T01:31:49.787Z,10.55
2019-05-18T01:34:20.052Z,10.20
2019-05-18T01:36:50.156Z,9.80
2019-05-18T01:39:20.245Z,9.90
2019-05-18T01:41:50.472Z,9.17
2019-05-18T01:44:20.566Z,9.47
2019-05-18T01:46:50.654Z,10.67
2019-05-18T01:49:20.773Z,9.47
2019-05-18T01:51:50.834Z,10.45
2019-05-18T01:54:20.767Z,9.43
2019-05-18T01:56:50.827Z,10.07
2019-05-18T01:59:20.989Z,9.20
2019-05-18T02:01:51.035Z,9.60
2019-05-18T02:04:21.211Z,10.43
2019-05-18T02:06:51.297Z,10.53
2019-05-18T02:09:21.440Z,10.03
2019-05-18T02:11:51.644Z,11.07
2019-05-18T02:14:21.704Z,12.23
2019-05-18T02:16:51.850Z,11.60
2019-05-18T02:19:24.762Z,11.07
2019-05-18T02:21:55.745Z,10.40
2019-05-18T02:24:25.758Z,9.80
2019-05-18T02:26:55.940Z,10.60
2019-05-18T02:29:26.107Z,13.83
2019-05-18T02:31:56.276Z,12.00
2019-05-18T02:34:26.413Z,10.03
2019-05-18T02:36:56.477Z,10.43
2019-05-18T02:39:26.842Z,11.57
2019-05-18T02:41:58.047Z,10.03
2019-05-18T02:44:28.141Z,12.37
2019-05-18T02:46:58.246Z,10.73
2019-05-18T02:49:28.361Z,11.30
2019-05-18T02:51:58.631Z,11.93
2019-05-18T02:54:28.629Z,11.63
2019-05-18T02:56:58.916Z,9.87
2019-05-18T02:59:29.014Z,9.30
2019-05-18T03:01:59.177Z,9.87
2019-05-18T03:04:29.319Z,10.73
2019-05-18T03:06:59.614Z,9.47
2019-05-18T03:09:29.873Z,9.40
2019-05-18T03:12:00.221Z,9.60
2019-05-18T03:14:30.444Z,10.87
2019-05-18T03:17:00.661Z,10.98
2019-05-18T03:19:30.830Z,11.03
2019-05-18T03:22:01.294Z,11.80
2019-05-18T03:24:31.316Z,11.93
2019-05-18T03:27:01.428Z,11.70
2019-05-18T03:29:31.501Z,10.67
2019-05-18T03:32:01.632Z,11.60
2019-05-18T03:34:31.759Z,11.40
2019-05-18T03:37:01.763Z,10.77
2019-05-18T03:39:31.967Z,11.53
2019-05-18T03:42:02.017Z,11.40
2019-05-18T03:44:32.221Z,11.40
2019-05-18T03:47:02.544Z,11.53
2019-05-18T03:49:32.629Z,11.17
2019-05-18T03:52:02.772Z,11.27
2019-05-18T03:54:32.841Z,11.30
2019-05-18T03:57:02.983Z,11.23
2019-05-18T03:59:32.941Z,10.83
2019-05-18T04:02:03.097Z,10.50
2019-05-18T04:04:33.240Z,10.47
2019-05-18T04:07:03.619Z,11.00
2019-05-18T04:09:33.710Z,11.77
2019-05-18T04:12:03.979Z,10.43
2019-05-18T04:14:34.061Z,12.00
2019-05-18T04:17:04.339Z,10.60
2019-05-18T04:19:45.824Z,9.63
2019-05-18T04:22:06.449Z,9.80
2019-05-18T04:24:36.603Z,10.17
2019-05-18T04:27:06.760Z,11.57
2019-05-18T04:29:36.722Z,13.83
2019-05-18T04:32:06.982Z,13.30
2019-05-18T04:34:37.181Z,14.13
2019-05-18T04:37:07.334Z,13.23
2019-05-18T04:39:37.465Z,14.17
2019-05-18T04:42:07.498Z,14.10
2019-05-18T04:44:37.527Z,13.23
2019-05-18T04:47:07.650Z,12.73
2019-05-18T04:49:37.674Z,12.03
2019-05-18T04:52:07.920Z,11.97
2019-05-18T04:54:37.946Z,13.07
2019-05-18T04:57:08.166Z,13.23
2019-05-18T04:59:38.401Z,13.13
2019-05-18T05:02:08.684Z,12.40
2019-05-18T05:04:38.790Z,12.57
2019-05-18T05:07:08.974Z,12.37
2019-05-18T05:09:39.069Z,11.47
2019-05-18T05:12:09.140Z,13.07
2019-05-18T05:14:39.305Z,12.33
2019-05-18T05:17:09.470Z,12.20
2019-05-18T05:19:39.402Z,13.07
2019-05-18T05:22:09.658Z,12.90
2019-05-18T05:24:39.924Z,12.83
2019-05-18T05:27:09.956Z,12.77
2019-05-18T05:29:39.913Z,13.87
2019-05-18T05:32:09.966Z,12.90
2019-05-18T05:34:40.012Z,12.87
2019-05-18T05:37:10.100Z,12.77
2019-05-18T05:39:40.229Z,13.50
2019-05-18T05:42:10.374Z,13.43
2019-05-18T05:44:40.587Z,13.83
2019-05-18T05:47:10.765Z,13.70
2019-05-18T05:49:40.898Z,12.37
2019-05-18T05:52:11.007Z,11.97
2019-05-18T05:54:41.142Z,13.60
2019-05-18T05:57:11.255Z,11.60
2019-05-18T05:59:41.308Z,13.07
2019-05-18T06:02:12.493Z,13.47
2019-05-18T06:04:42.591Z,12.90
2019-05-18T06:07:12.790Z,12.50
2019-05-18T06:09:42.910Z,13.10
2019-05-18T06:12:13.017Z,13.67
2019-05-18T06:14:43.144Z,12.63
2019-05-18T06:17:13.206Z,12.63
2019-05-18T06:19:43.367Z,12.13
2019-05-18T06:22:13.458Z,12.23
2019-05-18T06:24:43.618Z,13.13
2019-05-18T06:27:13.744Z,12.23
2019-05-18T06:29:43.897Z,11.20
2019-05-18T06:32:14.106Z,13.20
2019-05-18T06:34:44.242Z,12.07
2019-05-18T06:37:14.339Z,11.60
2019-05-18T06:39:44.518Z,11.43
2019-05-18T06:42:15.693Z,11.50
2019-05-18T06:44:45.743Z,12.37
2019-05-18T06:47:16.087Z,11.27
2019-05-18T06:49:46.369Z,11.27
2019-05-18T06:52:16.548Z,10.73
2019-05-18T06:54:46.719Z,11.23
2019-05-18T06:57:17.861Z,10.73
2019-05-18T06:59:48.200Z,10.40
2019-05-18T07:02:18.351Z,11.17
2019-05-18T07:04:48.456Z,9.93
2019-05-18T07:07:18.680Z,9.70
2019-05-18T07:09:48.880Z,9.80
2019-05-18T07:12:19.144Z,10.53
2019-05-18T07:14:49.236Z,10.93
2019-05-18T07:17:19.306Z,10.20
2019-05-18T07:19:49.448Z,10.03
2019-05-18T07:22:19.710Z,9.30
2019-05-18T07:24:49.743Z,9.40
2019-05-18T07:27:19.775Z,9.23
2019-05-18T07:29:49.803Z,9.30
2019-05-18T07:32:20.078Z,8.83
2019-05-18T07:34:50.079Z,9.07
2019-05-18T07:37:20.193Z,8.77
2019-05-18T07:39:50.298Z,9.53
2019-05-18T07:42:20.480Z,9.37
2019-05-18T07:44:50.735Z,9.07
2019-05-18T07:47:20.899Z,8.10
2019-05-18T07:49:51.005Z,7.60
2019-05-18T07:52:21.167Z,7.50
2019-05-18T07:54:51.332Z,7.83
2019-05-18T07:57:21.400Z,8.28
2019-05-18T07:59:51.501Z,9.10
2019-05-18T08:02:21.691Z,8.90
2019-05-18T08:04:51.711Z,8.80
2019-05-18T08:07:21.961Z,9.57
2019-05-18T08:09:52.088Z,9.25
2019-05-18T08:12:22.187Z,9.05
2019-05-18T08:14:52.303Z,9.03
2019-05-18T08:17:22.529Z,8.90
2019-05-18T08:19:52.576Z,8.85
2019-05-18T08:22:22.603Z,9.70
2019-05-18T08:24:52.662Z,8.85
2019-05-18T08:27:22.884Z,7.62
2019-05-18T08:29:52.922Z,8.95
2019-05-18T08:32:23.113Z,9.73
2019-05-18T08:34:53.212Z,8.95
2019-05-18T08:37:23.422Z,9.28
2019-05-18T08:39:53.640Z,9.15
2019-05-18T08:42:23.761Z,9.40
2019-05-18T08:44:53.802Z,8.88
2019-05-18T08:47:23.895Z,9.73
2019-05-18T08:49:54.130Z,8.37
2019-05-18T08:52:24.313Z,9.23
2019-05-18T08:54:54.341Z,8.98
2019-05-18T08:57:24.424Z,8.88
2019-05-18T08:59:54.638Z,8.85
2019-05-18T09:02:24.784Z,8.88
2019-05-18T09:04:54.896Z,8.70
2019-05-18T09:07:25.090Z,9.70
2019-05-18T09:09:55.144Z,8.13
2019-05-18T09:12:25.306Z,7.25
2019-05-18T09:14:55.379Z,6.92
2019-05-18T09:17:25.453Z,7.28
2019-05-18T09:19:55.584Z,8.83
2019-05-18T09:22:25.748Z,8.75
2019-05-18T09:24:55.955Z,7.75
2019-05-18T09:27:26.181Z,7.65
2019-05-18T09:29:56.242Z,6.72
2019-05-18T09:32:26.238Z,6.17
2019-05-18T09:34:56.263Z,6.30
2019-05-18T09:37:26.365Z,5.78
2019-05-18T09:39:56.638Z,5.83
2019-05-18T09:42:26.887Z,5.80
2019-05-18T09:44:57.093Z,5.92
2019-05-18T09:47:27.214Z,6.50
2019-05-18T09:49:57.380Z,7.10
2019-05-18T09:52:44.198Z,6.72
2019-05-18T09:54:59.432Z,6.00
2019-05-18T09:57:29.581Z,6.03
2019-05-18T09:59:59.755Z,6.20
2019-05-18T10:02:29.879Z,7.15
2019-05-18T10:04:59.886Z,6.65
2019-05-18T10:07:30.035Z,6.42
2019-05-18T10:10:00.168Z,6.28
2019-05-18T10:12:30.354Z,6.58
2019-05-18T10:15:02.053Z,5.62
2019-05-18T10:17:32.381Z,5.00
2019-05-18T10:20:02.557Z,4.30
2019-05-18T10:22:32.572Z,4.92
2019-05-18T10:25:02.695Z,6.35
2019-05-18T10:27:32.691Z,6.05
2019-05-18T10:30:02.766Z,6.08
2019-05-18T10:32:33.047Z,5.37
2019-05-18T10:35:03.159Z,4.50
2019-05-18T10:37:33.246Z,5.90
2019-05-18T10:40:03.461Z,5.47
2019-05-18T10:42:33.479Z,5.12
2019-05-18T10:45:03.613Z,5.25
2019-05-18T10:47:33.813Z,6.30
2019-05-18T10:50:04.119Z,6.37
2019-05-18T10:52:34.307Z,7.08
2019-05-18T10:55:04.664Z,7.30
2019-05-18T10:57:34.898Z,7.72
2019-05-18T11:00:06.335Z,8.43
2019-05-18T11:02:36.488Z,6.12
2019-05-18T11:05:07.039Z,6.80
2019-05-18T11:07:37.156Z,6.33
2019-05-18T11:10:08.245Z,6.00
2019-05-18T11:12:38.342Z,5.80
2019-05-18T11:15:09.165Z,5.67
2019-05-18T11:17:39.404Z,5.42
2019-05-18T11:20:10.778Z,5.43
2019-05-18T11:22:40.958Z,6.10
2019-05-18T11:25:11.516Z,5.00
2019-05-18T11:27:41.790Z,4.45
2019-05-18T11:30:12.946Z,4.47
2019-05-18T11:32:43.012Z,4.33
2019-05-18T11:35:13.841Z,4.15
2019-05-18T11:37:44.021Z,4.53
2019-05-18T11:40:16.109Z,4.57
2019-05-18T11:42:58.300Z,4.53
2019-05-18T11:45:23.140Z,4.47
2019-05-18T11:47:53.335Z,4.30
2019-05-18T11:50:23.665Z,4.03
2019-05-18T11:52:53.934Z,3.60
2019-05-18T11:55:24.263Z,4.40
2019-05-18T11:57:54.500Z,4.15
2019-05-18T12:00:26.752Z,4.95
2019-05-18T12:02:56.964Z,4.78
2019-05-18T12:05:27.178Z,4.30
2019-05-18T12:07:57.812Z,4.80
2019-05-18T12:10:27.997Z,4.83
2019-05-18T12:12:58.302Z,4.40
2019-05-18T12:15:29.611Z,4.45
2019-05-18T12:17:59.756Z,4.60
2019-05-18T12:20:29.811Z,3.98
2019-05-18T12:22:59.942Z,4.08
2019-05-18T12:25:29.918Z,4.50
2019-05-18T12:28:00.097Z,4.40
2019-05-18T12:30:30.239Z,4.00
2019-05-18T12:33:00.296Z,4.20
2019-05-18T12:35:30.517Z,3.50
2019-05-18T12:38:00.777Z,3.10
2019-05-18T12:40:30.943Z,3.20
2019-05-18T12:43:01.198Z,3.25
2019-05-18T12:45:31.429Z,3.55
2019-05-18T12:48:01.459Z,3.37
2019-05-18T12:50:31.732Z,3.20
2019-05-18T12:53:02.428Z,3.17
2019-05-18T12:55:33.952Z,3.15
2019-05-18T12:58:05.468Z,3.20
2019-05-18T13:00:36.980Z,3.02
2019-05-18T13:03:09.377Z,3.70
2019-05-18T13:05:39.778Z,3.55
2019-05-18T13:08:12.202Z,2.60
2019-05-18T13:10:49.391Z,3.25
2019-05-18T13:13:21.286Z,3.05
2019-05-18T13:15:51.619Z,2.85
2019-05-18T13:18:22.090Z,3.10
2019-05-18T13:20:52.511Z,3.22
2019-05-18T13:23:22.916Z,6.08
2019-05-18T13:25:53.214Z,4.33
2019-05-18T13:28:23.438Z,3.20
2019-05-18T13:30:53.848Z,3.05
2019-05-18T13:33:24.241Z,2.90
2019-05-18T13:35:54.716Z,3.47
2019-05-18T13:38:26.013Z,3.45
2019-05-18T13:40:56.411Z,2.95
2019-05-18T13:43:26.758Z,3.30
2019-05-18T13:45:57.218Z,3.02
2019-05-18T13:48:27.496Z,3.00
2019-05-18T13:50:57.855Z,2.77
2019-05-18T13:53:28.147Z,3.10
2019-05-18T13:55:58.715Z,2.87
2019-05-18T13:58:29.062Z,2.83
2019-05-18T14:00:59.392Z,2.72
2019-05-18T14:03:29.667Z,2.83
2019-05-18T14:06:00.188Z,2.55
2019-05-18T14:08:30.570Z,2.47
2019-05-18T14:11:00.714Z,2.47
2019-05-18T14:13:30.910Z,3.00
2019-05-18T14:16:01.116Z,2.70
2019-05-18T14:18:31.358Z,2.77
2019-05-18T14:21:01.679Z,2.72
2019-05-18T14:23:32.077Z,2.58
2019-05-18T14:26:03.537Z,2.25
2019-05-18T14:28:34.910Z,2.60
2019-05-18T14:31:05.153Z,2.70
2019-05-18T14:33:35.455Z,2.47
2019-05-18T14:36:05.795Z,2.47
2019-05-18T14:38:35.898Z,2.62
2019-05-18T14:41:06.121Z,2.37
2019-05-18T14:43:36.262Z,2.58
2019-05-18T14:46:06.591Z,2.40
2019-05-18T14:48:37.006Z,2.67
2019-05-18T14:51:07.235Z,2.40
2019-05-18T14:53:37.543Z,2.70
2019-05-18T14:56:07.872Z,3.37
2019-05-18T14:58:40.236Z,3.60
2019-05-18T15:01:10.432Z,2.55
2019-05-18T15:03:40.662Z,2.67
2019-05-18T15:06:10.821Z,3.33
2019-05-18T15:08:41.080Z,2.77
2019-05-18T15:11:11.095Z,2.70
2019-05-18T15:13:41.451Z,3.20
2019-05-18T15:16:11.576Z,3.25
2019-05-18T15:18:41.798Z,2.95
2019-05-18T15:21:12.047Z,3.08
2019-05-18T15:23:42.432Z,2.90
2019-05-18T15:26:12.751Z,2.60
2019-05-18T15:28:43.117Z,3.00
2019-05-18T15:31:13.481Z,2.75
2019-05-18T15:33:43.823Z,2.98
2019-05-18T15:36:15.285Z,2.52
2019-05-18T15:38:45.620Z,2.80
2019-05-18T15:41:16.125Z,3.05
2019-05-18T15:43:48.480Z,2.90
2019-05-18T15:46:20.869Z,2.87
2019-05-18T15:48:51.218Z,3.08
2019-05-18T15:51:21.679Z,2.80
2019-05-18T15:53:52.118Z,2.58
2019-05-18T15:56:22.593Z,2.65
2019-05-18T15:58:52.938Z,2.83
2019-05-18T16:01:23.433Z,2.47
2019-05-18T16:03:53.864Z,2.80
2019-05-18T16:06:25.197Z,3.05
2019-05-18T16:08:55.547Z,2.70
2019-05-18T16:11:25.952Z,2.90
2019-05-18T16:13:56.554Z,3.20
2019-05-18T16:16:26.947Z,4.00
2019-05-18T16:18:57.371Z,3.60
2019-05-18T16:21:27.900Z,3.72
2019-05-18T16:23:58.521Z,4.60
2019-05-18T16:26:28.957Z,7.40
2019-05-18T16:28:59.331Z,5.37
2019-05-18T16:31:47.754Z,3.95
2019-05-18T16:34:19.157Z,4.40
2019-05-18T16:36:49.459Z,4.75
2019-05-18T16:39:20.878Z,4.40
2019-05-18T16:41:51.456Z,4.80
2019-05-18T16:44:21.715Z,4.17
2019-05-18T16:46:52.184Z,4.05
2019-05-18T16:49:22.941Z,3.60
2019-05-18T16:51:53.696Z,3.67
2019-05-18T16:54:24.907Z,3.83
2019-05-18T16:56:56.027Z,3.50
2019-05-18T16:59:26.374Z,3.37
2019-05-18T17:01:56.918Z,3.20
2019-05-18T17:04:27.223Z,3.50
2019-05-18T17:07:02.681Z,3.85
2019-05-18T17:09:33.031Z,3.95
2019-05-18T17:12:03.424Z,4.55
2019-05-18T17:14:33.746Z,4.70
2019-05-18T17:17:06.178Z,4.20
2019-05-18T17:19:51.031Z,4.00
2019-05-18T17:22:21.171Z,4.25
2019-05-18T17:24:51.466Z,3.98
2019-05-18T17:27:21.871Z,4.22
2019-05-18T17:29:52.283Z,3.72
2019-05-18T17:32:22.716Z,3.95
2019-05-18T17:34:53.753Z,4.05
2019-05-18T17:37:24.091Z,4.00
2019-05-18T17:39:54.435Z,4.15
2019-05-18T17:42:24.637Z,4.53
2019-05-18T17:44:54.858Z,4.90
2019-05-18T17:47:24.921Z,4.72
2019-05-18T17:49:55.293Z,4.87
2019-05-18T17:52:25.510Z,4.80
2019-05-18T17:54:57.430Z,4.60
2019-05-18T17:57:27.551Z,4.35
2019-05-18T17:59:57.779Z,4.75
2019-05-18T18:02:28.039Z,4.70
2019-05-18T18:04:58.216Z,4.42
2019-05-18T18:07:28.466Z,4.67
2019-05-18T18:09:59.079Z,4.50
2019-05-18T18:12:32.146Z,4.87
2019-05-18T18:15:02.548Z,5.25
2019-05-18T18:17:32.716Z,4.45
2019-05-18T18:20:02.938Z,4.60
2019-05-18T18:22:33.056Z,3.98
2019-05-18T18:25:03.323Z,4.22
2019-05-18T18:27:33.528Z,4.03
2019-05-18T18:30:03.834Z,3.70
2019-05-18T18:32:34.028Z,3.70
2019-05-18T18:35:04.170Z,4.00
2019-05-18T18:37:34.199Z,4.28
2019-05-18T18:40:04.660Z,4.42
2019-05-18T18:42:34.886Z,4.70
2019-05-18T18:45:05.329Z,4.25
2019-05-18T18:47:35.509Z,4.08
2019-05-18T18:50:05.824Z,4.37
2019-05-18T18:52:36.173Z,4.75
2019-05-18T18:55:06.546Z,4.87
2019-05-18T18:57:41.162Z,4.62
2019-05-18T19:00:09.638Z,4.87
2019-05-18T19:02:39.840Z,5.45
2019-05-18T19:05:11.482Z,5.92
2019-05-18T19:07:41.697Z,6.30
2019-05-18T19:10:12.287Z,5.87
2019-05-18T19:12:42.562Z,6.25
2019-05-18T19:15:14.063Z,6.10
2019-05-18T19:17:44.275Z,6.35
2019-05-18T19:20:14.629Z,6.33
2019-05-18T19:22:44.901Z,5.95
2019-05-18T19:25:15.582Z,6.23
2019-05-18T19:27:54.440Z,6.28
2019-05-18T19:30:18.487Z,6.53
2019-05-18T19:32:48.676Z,6.37
2019-05-18T19:35:18.904Z,6.33
2019-05-18T19:37:49.192Z,6.83
2019-05-18T19:40:19.463Z,6.70
2019-05-18T19:42:49.658Z,7.08
2019-05-18T19:45:19.865Z,7.12
2019-05-18T19:47:50.091Z,6.72
2019-05-18T19:50:20.323Z,6.78
2019-05-18T19:52:50.484Z,6.72
2019-05-18T19:55:20.764Z,6.53
2019-05-18T19:57:50.828Z,6.33
2019-05-18T20:00:21.522Z,7.33
2019-05-18T20:02:51.643Z,6.22
2019-05-18T20:05:21.785Z,6.25
2019-05-18T20:07:52.010Z,6.65
2019-05-18T20:10:24.800Z,6.78
2019-05-18T20:12:54.994Z,6.62
2019-05-18T20:15:25.273Z,7.17
2019-05-18T20:17:55.542Z,6.87
2019-05-18T20:20:25.772Z,7.25
2019-05-18T20:22:56.064Z,6.62
2019-05-18T20:25:27.288Z,6.50
2019-05-18T20:27:57.457Z,6.67
2019-05-18T20:30:27.671Z,6.42
2019-05-18T20:32:57.803Z,6.53
2019-05-18T20:35:28.141Z,7.28
2019-05-18T20:37:58.441Z,6.00
2019-05-18T20:40:28.542Z,6.67
2019-05-18T20:42:58.775Z,7.00
2019-05-18T20:45:28.958Z,6.08
2019-05-18T20:47:59.247Z,6.60
2019-05-18T20:50:29.430Z,6.70
2019-05-18T20:52:59.593Z,6.53
2019-05-18T20:55:29.878Z,6.63
2019-05-18T20:57:59.944Z,6.80
2019-05-18T21:00:30.226Z,6.63
2019-05-18T21:03:00.287Z,6.62
2019-05-18T21:05:30.585Z,6.77
2019-05-18T21:08:00.744Z,6.27
2019-05-18T21:10:31.025Z,6.10
2019-05-18T21:13:01.248Z,7.20
2019-05-18T21:15:31.424Z,6.27
2019-05-18T21:18:01.695Z,6.55
2019-05-18T21:20:31.880Z,6.50
2019-05-18T21:23:02.044Z,7.20
2019-05-18T21:25:32.449Z,6.80
2019-05-18T21:28:02.683Z,6.23
2019-05-18T21:30:35.279Z,6.70
2019-05-18T21:33:05.613Z,7.40
2019-05-18T21:35:35.882Z,5.97
2019-05-18T21:38:06.056Z,6.63
2019-05-18T21:40:36.240Z,6.63
2019-05-18T21:43:06.399Z,7.17
2019-05-18T21:45:38.715Z,6.60
2019-05-18T21:48:08.975Z,8.23
2019-05-18T21:50:39.167Z,7.30
2019-05-18T21:53:09.320Z,7.33
2019-05-18T21:55:39.452Z,8.47
2019-05-18T21:58:12.270Z,7.87
2019-05-18T22:00:41.506Z,8.00
2019-05-18T22:03:11.828Z,7.95
2019-05-18T22:05:42.048Z,7.50
2019-05-18T22:08:12.296Z,8.27
2019-05-18T22:10:42.467Z,7.57
2019-05-18T22:13:12.635Z,7.73
2019-05-18T22:15:42.820Z,7.77
2019-05-18T22:18:24.099Z,8.13
2019-05-18T22:20:44.872Z,7.87
2019-05-18T22:23:15.096Z,7.80
2019-05-18T22:25:45.216Z,8.07
2019-05-18T22:28:15.527Z,8.53
2019-05-18T22:30:45.768Z,7.80
2019-05-18T22:33:16.083Z,8.77
2019-05-18T22:35:46.187Z,8.80
2019-05-18T22:38:16.379Z,8.80
2019-05-18T22:40:46.397Z,8.77
2019-05-18T22:43:16.542Z,8.60
2019-05-18T22:45:46.673Z,8.30
2019-05-18T22:48:16.905Z,8.77
2019-05-18T22:50:47.101Z,8.03
2019-05-18T22:53:17.334Z,8.80
2019-05-18T22:55:47.525Z,8.80
2019-05-18T22:58:17.719Z,8.40
2019-05-18T23:00:47.953Z,7.90
2019-05-18T23:03:18.128Z,7.80
2019-05-18T23:05:48.329Z,8.00
2019-05-18T23:08:18.443Z,8.40
2019-05-18T23:10:48.670Z,8.03
2019-05-18T23:13:18.783Z,8.20
2019-05-18T23:15:48.994Z,7.90
2019-05-18T23:18:19.184Z,8.10
2019-05-18T23:20:49.277Z,7.63
2019-05-18T23:23:19.485Z,7.57
2019-05-18T23:25:49.678Z,8.30
2019-05-18T23:28:19.790Z,8.53
2019-05-18T23:30:49.962Z,7.90
2019-05-18T23:33:20.027Z,7.87
2019-05-18T23:35:50.191Z,8.03
2019-05-18T23:38:20.379Z,8.17
2019-05-18T23:40:50.494Z,8.43
2019-05-18T23:43:20.663Z,8.03
2019-05-18T23:45:50.718Z,8.30
2019-05-18T23:48:20.857Z,8.10
2019-05-18T23:50:52.317Z,7.97
2019-05-18T23:53:22.510Z,8.20
2019-05-18T23:55:52.685Z,9.60
2019-05-18T23:58:22.734Z,7.57
